YPPH/PER METAR and TAF weather

Enter ICAO airport designator
Station Type Date Time Source
YPPH METAR 2021/09/28 16:30 UTC NOAA

YPPH 281630Z 06013KT CAVOK 17/08 Q1013


Station Type Date Time Source
YPPH Decoded METAR 2021/09/28 16:30 UTC NOAA

Belmont Perth Airport , Australia (YPPH) 31-56S 115-57E 29M
Sep 28, 2021 - 12:30 PM EDT / 2021.09.28 1630 UTC
Wind: from the ENE (060 degrees) at 15 MPH (13 KT):0
Visibility: greater than 7 mile(s):0
Temperature: 62 F (17 C)
Dew Point: 46 F (8 C)
Relative Humidity: 55%
Pressure (altimeter): 29.91 in. Hg (1013 hPa)
ob: YPPH 281630Z 06013KT CAVOK 17/08 Q1013
cycle: 16

Station Type Date Time Source
YPPH TAF 2021/09/28 15:35 UTC NOAA

TAF YPPH 281428Z 2815/2918 08010KT CAVOK
FM290000 03013KT 9999 -SHRA NSC
FM290400 34012KT 9999 -SHRA NSC
FM290700 31015KT 9999 -SHRA SCT025
FM291400 02008KT 9999 NSW FEW035 INTER 2902/2907 5000 SHRA BKN030 FEW070TCU INTER 2907/2910 4000 SHRA BKN015 FEW030TCU

Example: see airport list